Time;durP1;ratioP1;P1;durP2;ratioP2;P2;SDS_P1;SDS_P2;PMS_P1;PMS_P2;Temp;Humidity;BMP_temperature;BMP_pressure;BME280_temperature;BME280_humidity;BME280_pressure;Samples;Min_cycle;Max_cycle;Signal;HPM_P1;HPM_P2
2022/01/11 00:02:05;0.00;0.00;0.62;0.00;0.00;0.62;6.57;5.10;;;21.10;28.20;;;;;;2245274;61;20357;-61
2022/01/11 00:04:49;0.00;0.00;0.62;0.00;0.00;0.62;5.70;4.60;;;21.10;28.20;;;;;;2245995;61;20385;-63
2022/01/11 00:07:35;0.00;0.00;0.62;0.00;0.00;0.62;5.93;4.70;;;21.10;28.10;;;;;;2245489;61;20353;-62
2022/01/11 00:10:30;0.00;0.00;0.62;0.00;0.00;0.62;7.10;5.07;;;21.10;28.10;;;;;;2245830;61;20450;-61
2022/01/11 00:13:18;0.00;0.00;0.62;0.00;0.00;0.62;10.23;5.40;;;21.00;28.00;;;;;;2245771;61;20354;-63
2022/01/11 00:16:05;0.00;0.00;0.62;0.00;0.00;0.62;9.40;5.20;;;21.00;28.00;;;;;;2245445;61;20729;-63
2022/01/11 00:18:50;0.00;0.00;0.62;0.00;0.00;0.62;5.90;5.03;;;21.00;28.00;;;;;;2245972;61;20590;-63
2022/01/11 00:21:44;0.00;0.00;0.62;0.00;0.00;0.62;7.83;5.33;;;21.00;28.00;;;;;;2245434;61;20361;-61
2022/01/11 00:24:36;0.00;0.00;0.62;0.00;0.00;0.62;7.20;5.80;;;21.00;27.90;;;;;;2245291;61;20593;-62
2022/01/11 00:27:21;0.00;0.00;0.62;0.00;0.00;0.62;7.23;5.77;;;21.00;27.90;;;;;;2245969;61;20732;-62
2022/01/11 00:30:09;0.00;0.00;0.62;0.00;0.00;0.62;7.10;5.37;;;20.90;27.80;;;;;;2244684;61;20466;-62
2022/01/11 00:32:56;0.00;0.00;0.62;0.00;0.00;0.62;6.73;5.53;;;20.90;27.80;;;;;;2245096;61;20373;-63
2022/01/11 00:35:43;0.00;0.00;0.62;0.00;0.00;0.62;8.87;5.90;;;20.90;27.70;;;;;;2245671;61;20377;-61
2022/01/11 00:38:33;0.00;0.00;0.62;0.00;0.00;0.62;9.47;6.70;;;20.90;27.70;;;;;;2245098;61;20409;-63
2022/01/11 00:41:17;0.00;0.00;0.62;0.00;0.00;0.62;7.30;6.60;;;20.90;27.70;;;;;;2245449;61;20405;-62
2022/01/11 00:44:02;0.00;0.00;0.62;0.00;0.00;0.62;8.40;6.53;;;20.80;27.70;;;;;;2245219;61;20386;-62
2022/01/11 00:46:47;0.00;0.00;0.62;0.00;0.00;0.62;7.00;5.20;;;20.80;27.60;;;;;;2244954;61;20393;-61
2022/01/11 00:49:34;0.00;0.00;0.62;0.00;0.00;0.62;8.23;6.23;;;20.80;27.60;;;;;;2245940;61;20370;-62
2022/01/11 00:52:18;0.00;0.00;0.62;0.00;0.00;0.62;8.90;6.00;;;20.80;27.50;;;;;;2244510;61;20417;-61
2022/01/11 00:55:04;0.00;0.00;0.62;0.00;0.00;0.62;7.83;5.80;;;20.80;27.50;;;;;;2245447;61;20601;-63
2022/01/11 00:57:48;0.00;0.00;0.62;0.00;0.00;0.62;7.47;6.17;;;20.70;27.40;;;;;;2245876;61;20409;-61
2022/01/11 01:00:35;0.00;0.00;0.62;0.00;0.00;0.62;8.17;6.20;;;20.70;27.40;;;;;;2245148;61;20353;-61
2022/01/11 01:03:21;0.00;0.00;0.62;0.00;0.00;0.62;7.57;6.23;;;20.70;27.40;;;;;;2245648;61;20473;-62
2022/01/11 01:06:06;0.00;0.00;0.62;0.00;0.00;0.62;6.47;5.80;;;20.70;27.40;;;;;;2245378;61;20733;-62
2022/01/11 01:08:51;0.00;0.00;0.62;0.00;0.00;0.62;8.93;6.07;;;20.60;27.30;;;;;;2244638;61;20728;-62
2022/01/11 01:11:36;0.00;0.00;0.62;0.00;0.00;0.62;8.30;6.03;;;20.60;27.30;;;;;;2245523;61;20744;-62
2022/01/11 01:14:21;0.00;0.00;0.62;0.00;0.00;0.62;6.33;5.73;;;20.60;27.40;;;;;;2244513;61;20380;-64
2022/01/11 01:17:08;0.00;0.00;0.62;0.00;0.00;0.62;6.90;5.60;;;20.60;27.40;;;;;;2245095;61;20365;-64
2022/01/11 01:19:55;0.00;0.00;0.62;0.00;0.00;0.62;6.83;5.73;;;20.60;27.30;;;;;;2245956;61;20466;-63
2022/01/11 01:22:41;0.00;0.00;0.62;0.00;0.00;0.62;11.17;6.93;;;20.50;27.20;;;;;;2244688;61;20470;-62
2022/01/11 01:25:25;0.00;0.00;0.62;0.00;0.00;0.62;8.27;6.13;;;20.50;27.30;;;;;;2245812;61;20381;-63
2022/01/11 01:28:10;0.00;0.00;0.62;0.00;0.00;0.62;7.67;6.67;;;20.50;27.20;;;;;;2244965;61;20370;-62
2022/01/11 01:31:00;0.00;0.00;0.62;0.00;0.00;0.62;8.80;6.27;;;20.40;27.20;;;;;;2245093;61;20797;-64
2022/01/11 01:33:45;0.00;0.00;0.62;0.00;0.00;0.62;8.87;6.80;;;20.40;27.20;;;;;;2245349;61;20385;-63
2022/01/11 01:36:32;0.00;0.00;0.62;0.00;0.00;0.62;7.47;6.33;;;20.40;27.20;;;;;;2244951;61;20709;-64
2022/01/11 01:39:16;0.00;0.00;0.62;0.00;0.00;0.62;7.93;6.53;;;20.40;27.20;;;;;;2245510;61;20709;-63
2022/01/11 01:42:02;0.00;0.00;0.62;0.00;0.00;0.62;7.80;7.00;;;20.40;27.20;;;;;;2245934;61;20724;-63
2022/01/11 01:44:48;0.00;0.00;0.62;0.00;0.00;0.62;7.10;6.37;;;20.40;27.20;;;;;;2244505;61;20599;-63
2022/01/11 01:47:32;0.00;0.00;0.62;0.00;0.00;0.62;8.37;7.23;;;20.30;27.10;;;;;;2245941;61;20361;-63
2022/01/11 01:50:17;0.00;0.00;0.62;0.00;0.00;0.62;8.40;7.27;;;20.30;27.10;;;;;;2245041;61;20592;-63
2022/01/11 01:53:07;0.00;0.00;0.62;0.00;0.00;0.62;6.10;5.50;;;20.30;27.10;;;;;;2244441;61;20406;-62
2022/01/11 01:55:52;0.00;0.00;0.62;0.00;0.00;0.62;7.40;6.60;;;20.30;27.10;;;;;;2245839;61;20370;-62
2022/01/11 01:58:40;0.00;0.00;0.62;0.00;0.00;0.62;8.10;6.20;;;20.20;27.00;;;;;;2244490;61;20373;-63
2022/01/11 02:01:26;0.00;0.00;0.62;0.00;0.00;0.62;8.90;6.30;;;20.20;27.00;;;;;;2245042;61;20394;-63
2022/01/11 02:04:11;0.00;0.00;0.62;0.00;0.00;0.62;6.83;5.97;;;20.20;27.00;;;;;;2245581;61;20381;-63
2022/01/11 02:06:56;0.00;0.00;0.62;0.00;0.00;0.62;7.00;6.07;;;20.20;27.00;;;;;;2244626;61;20370;-63
2022/01/11 02:09:42;0.00;0.00;0.62;0.00;0.00;0.62;7.30;6.60;;;20.10;26.90;;;;;;2245776;61;20603;-64
2022/01/11 02:12:27;0.00;0.00;0.62;0.00;0.00;0.62;8.07;7.27;;;20.10;26.90;;;;;;2245136;61;20398;-64
2022/01/11 02:15:12;0.00;0.00;0.62;0.00;0.00;0.62;6.90;6.07;;;20.10;26.90;;;;;;2244664;61;20381;-62
2022/01/11 02:18:07;0.00;0.00;0.62;0.00;0.00;0.62;6.70;5.83;;;20.10;27.00;;;;;;2245383;61;20580;-63
2022/01/11 02:20:58;0.00;0.00;0.62;0.00;0.00;0.62;7.13;6.40;;;20.10;27.00;;;;;;2242629;61;20352;-64
2022/01/11 02:23:48;0.00;0.00;0.62;0.00;0.00;0.62;6.47;5.87;;;20.10;27.00;;;;;;2245533;61;20870;-63
2022/01/11 02:26:33;0.00;0.00;0.62;0.00;0.00;0.62;6.97;6.27;;;20.00;26.90;;;;;;2245839;61;20365;-63
2022/01/11 02:29:19;0.00;0.00;0.62;0.00;0.00;0.62;7.47;5.40;;;20.00;26.90;;;;;;2245770;61;20376;-62
2022/01/11 02:32:06;0.00;0.00;0.62;0.00;0.00;0.62;9.93;6.43;;;20.00;26.90;;;;;;2246006;61;20809;-64
2022/01/11 02:34:50;0.00;0.00;0.62;0.00;0.00;0.62;8.63;6.30;;;20.00;26.90;;;;;;2245505;61;20388;-63
2022/01/11 02:37:42;0.00;0.00;0.62;0.00;0.00;0.62;10.30;7.17;;;19.90;26.90;;;;;;2245353;61;20357;-62
2022/01/11 02:40:30;0.00;0.00;0.62;0.00;0.00;0.62;7.87;6.10;;;19.90;26.90;;;;;;2245776;61;20384;-63
2022/01/11 02:43:15;0.00;0.00;0.62;0.00;0.00;0.62;8.17;6.27;;;19.90;27.40;;;;;;2245214;61;20425;-62
2022/01/11 02:46:01;0.00;0.00;0.62;0.00;0.00;0.62;8.40;6.27;;;19.90;26.80;;;;;;2245673;61;20409;-62
2022/01/11 02:48:51;0.00;0.00;0.62;0.00;0.00;0.62;7.03;5.00;;;19.90;26.90;;;;;;2245737;61;20357;-63
2022/01/11 02:51:36;0.00;0.00;0.62;0.00;0.00;0.62;7.97;6.70;;;19.80;26.80;;;;;;2244975;61;20397;-63
2022/01/11 02:54:23;0.00;0.00;0.62;0.00;0.00;0.62;7.90;6.20;;;19.80;26.80;;;;;;2245712;61;20448;-64
2022/01/11 02:57:12;0.00;0.00;0.62;0.00;0.00;0.62;6.00;5.37;;;19.80;26.80;;;;;;2245308;61;20405;-62
2022/01/11 02:59:56;0.00;0.00;0.62;0.00;0.00;0.62;6.77;5.50;;;19.70;26.70;;;;;;2245665;61;20715;-64
2022/01/11 03:02:42;0.00;0.00;0.62;0.00;0.00;0.62;7.00;6.00;;;19.70;26.70;;;;;;2245653;61;20439;-64
2022/01/11 03:05:27;0.00;0.00;0.62;0.00;0.00;0.62;7.77;6.97;;;19.70;26.70;;;;;;2244952;61;20394;-62
2022/01/11 03:08:15;0.00;0.00;0.62;0.00;0.00;0.62;6.50;5.60;;;19.70;26.80;;;;;;2245489;61;20365;-63
2022/01/11 03:11:01;0.00;0.00;0.62;0.00;0.00;0.62;8.10;5.30;;;19.70;26.80;;;;;;2246139;61;20384;-62
2022/01/11 03:13:47;0.00;0.00;0.62;0.00;0.00;0.62;6.43;5.30;;;19.60;26.70;;;;;;2244855;61;20393;-64
2022/01/11 03:16:32;0.00;0.00;0.62;0.00;0.00;0.62;8.60;6.00;;;19.60;26.70;;;;;;2245666;61;20401;-62
2022/01/11 03:19:19;0.00;0.00;0.62;0.00;0.00;0.62;8.53;5.83;;;19.60;26.70;;;;;;2245249;61;20361;-61
2022/01/11 03:22:04;0.00;0.00;0.62;0.00;0.00;0.62;9.00;5.90;;;19.60;26.70;;;;;;2245124;61;20357;-64
2022/01/11 03:24:49;0.00;0.00;0.62;0.00;0.00;0.62;6.40;5.57;;;19.50;26.60;;;;;;2245660;61;20401;-61
2022/01/11 03:27:35;0.00;0.00;0.62;0.00;0.00;0.62;7.30;5.87;;;19.50;26.60;;;;;;2245123;61;20389;-62
2022/01/11 03:30:21;0.00;0.00;0.62;0.00;0.00;0.62;6.37;5.43;;;19.50;26.60;;;;;;2245171;61;20449;-63
2022/01/11 03:33:11;0.00;0.00;0.62;0.00;0.00;0.62;9.07;5.40;;;19.50;26.70;;;;;;2245597;61;20365;-63
2022/01/11 03:35:58;0.00;0.00;0.62;0.00;0.00;0.62;6.07;5.17;;;19.40;26.60;;;;;;2244902;61;20362;-62
2022/01/11 03:38:43;0.00;0.00;0.62;0.00;0.00;0.62;5.70;4.77;;;19.40;26.60;;;;;;2245693;61;20373;-62
2022/01/11 03:41:30;0.00;0.00;0.62;0.00;0.00;0.62;6.80;6.10;;;19.40;26.60;;;;;;2245119;61;20420;-62
2022/01/11 03:44:16;0.00;0.00;0.62;0.00;0.00;0.62;6.70;5.63;;;19.40;26.60;;;;;;2244743;61;20377;-62
2022/01/11 03:47:02;0.00;0.00;0.62;0.00;0.00;0.62;7.27;5.70;;;19.30;26.50;;;;;;2246277;61;20693;-63
2022/01/11 03:49:46;0.00;0.00;0.62;0.00;0.00;0.62;7.83;5.60;;;19.30;26.50;;;;;;2245302;61;20358;-63
2022/01/11 03:52:31;0.00;0.00;0.62;0.00;0.00;0.62;9.13;6.37;;;19.30;26.50;;;;;;2245123;61;20438;-62
2022/01/11 03:55:21;0.00;0.00;0.62;0.00;0.00;0.62;7.53;5.23;;;19.30;26.50;;;;;;2245840;61;20769;-62
2022/01/11 03:58:11;0.00;0.00;0.62;0.00;0.00;0.62;6.10;5.07;;;19.20;26.50;;;;;;2242079;61;20369;-62
2022/01/11 04:00:58;0.00;0.00;0.62;0.00;0.00;0.62;5.77;4.50;;;19.20;26.50;;;;;;2243048;61;20357;-62
2022/01/11 04:03:44;0.00;0.00;0.62;0.00;0.00;0.62;5.67;4.83;;;19.20;26.50;;;;;;2244978;61;20485;-62
2022/01/11 04:06:29;0.00;0.00;0.62;0.00;0.00;0.62;8.40;5.20;;;19.20;26.50;;;;;;2245166;61;20584;-62
2022/01/11 04:09:15;0.00;0.00;0.62;0.00;0.00;0.62;5.00;4.27;;;19.20;26.50;;;;;;2245833;61;20438;-64
2022/01/11 04:12:02;0.00;0.00;0.62;0.00;0.00;0.62;5.77;4.67;;;19.10;26.40;;;;;;2244583;61;20429;-62
2022/01/11 04:14:48;0.00;0.00;0.62;0.00;0.00;0.62;5.70;4.33;;;19.20;26.50;;;;;;2245204;61;20386;-64
2022/01/11 04:17:34;0.00;0.00;0.62;0.00;0.00;0.62;5.37;4.87;;;19.10;26.50;;;;;;2245718;61;20572;-63
2022/01/11 04:20:22;0.00;0.00;0.62;0.00;0.00;0.62;5.77;4.73;;;19.10;27.00;;;;;;2245063;61;20361;-63
2022/01/11 04:23:09;0.00;0.00;0.62;0.00;0.00;0.62;5.80;4.37;;;19.10;26.50;;;;;;2245550;61;20373;-64
2022/01/11 04:25:54;0.00;0.00;0.62;0.00;0.00;0.62;7.27;6.30;;;19.10;26.50;;;;;;2244978;61;20361;-63
2022/01/11 04:28:40;0.00;0.00;0.62;0.00;0.00;0.62;6.93;5.40;;;19.10;26.50;;;;;;2244960;61;20489;-64
2022/01/11 04:31:26;0.00;0.00;0.62;0.00;0.00;0.62;5.90;4.80;;;19.10;26.50;;;;;;2245692;61;20385;-62
2022/01/11 04:34:13;0.00;0.00;0.62;0.00;0.00;0.62;7.90;4.83;;;19.00;26.40;;;;;;2244375;61;20378;-64
2022/01/11 04:36:57;0.00;0.00;0.62;0.00;0.00;0.62;5.10;4.30;;;19.00;26.40;;;;;;2245284;61;20734;-63
2022/01/11 04:39:44;0.00;0.00;0.62;0.00;0.00;0.62;5.73;4.77;;;19.00;26.40;;;;;;2245394;61;20416;-63
2022/01/11 04:42:29;0.00;0.00;0.62;0.00;0.00;0.62;5.27;4.70;;;19.00;26.40;;;;;;2244408;61;20370;-62
2022/01/11 04:45:14;0.00;0.00;0.62;0.00;0.00;0.62;7.80;5.23;;;19.00;26.40;;;;;;2245726;61;20405;-62
2022/01/11 04:47:59;0.00;0.00;0.62;0.00;0.00;0.62;6.10;5.00;;;19.00;26.40;;;;;;2244930;61;20361;-63
2022/01/11 04:50:45;0.00;0.00;0.62;0.00;0.00;0.62;6.60;5.77;;;19.00;26.40;;;;;;2242216;61;20717;-64
2022/01/11 04:53:32;0.00;0.00;0.62;0.00;0.00;0.62;6.37;4.27;;;19.00;26.40;;;;;;2245408;61;20382;-63
2022/01/11 04:56:17;0.00;0.00;0.62;0.00;0.00;0.62;5.97;4.40;;;19.00;26.40;;;;;;2244724;61;20360;-63
2022/01/11 04:59:03;0.00;0.00;0.62;0.00;0.00;0.62;7.33;5.03;;;18.90;26.30;;;;;;2245320;61;20358;-63
2022/01/11 05:01:49;0.00;0.00;0.62;0.00;0.00;0.62;6.70;5.27;;;19.00;26.40;;;;;;2245531;61;20354;-63
2022/01/11 05:04:35;0.00;0.00;0.62;0.00;0.00;0.62;5.30;4.43;;;18.90;26.30;;;;;;2244676;61;20377;-61
2022/01/11 05:07:21;0.00;0.00;0.62;0.00;0.00;0.62;6.30;4.70;;;18.90;26.30;;;;;;2245521;61;20660;-64
2022/01/11 05:10:07;0.00;0.00;0.62;0.00;0.00;0.62;7.90;5.17;;;18.90;26.30;;;;;;2245003;61;20369;-62
2022/01/11 05:12:52;0.00;0.00;0.62;0.00;0.00;0.62;6.30;4.80;;;18.90;26.40;;;;;;2245089;61;20684;-62
2022/01/11 05:15:39;0.00;0.00;0.62;0.00;0.00;0.62;6.17;5.40;;;18.90;26.30;;;;;;2245453;61;20385;-62
2022/01/11 05:18:24;0.00;0.00;0.62;0.00;0.00;0.62;8.97;5.70;;;18.90;26.30;;;;;;2244668;61;20398;-62
2022/01/11 05:21:08;0.00;0.00;0.62;0.00;0.00;0.62;6.30;5.70;;;18.90;26.40;;;;;;2245564;61;20362;-64
2022/01/11 05:23:55;0.00;0.00;0.62;0.00;0.00;0.62;9.83;5.57;;;18.80;26.80;;;;;;2245194;61;20421;-63
2022/01/11 05:26:40;0.00;0.00;0.62;0.00;0.00;0.62;7.17;5.47;;;18.80;26.30;;;;;;2244734;61;20364;-63
2022/01/11 05:29:25;0.00;0.00;0.62;0.00;0.00;0.62;9.70;6.03;;;18.90;26.30;;;;;;2245361;61;20753;-64
2022/01/11 05:32:09;0.00;0.00;0.62;0.00;0.00;0.62;6.47;5.63;;;18.80;26.30;;;;;;2244982;61;20412;-64
2022/01/11 05:34:54;0.00;0.00;0.62;0.00;0.00;0.62;8.60;6.27;;;18.80;26.30;;;;;;2244633;61;20398;-62
2022/01/11 05:37:39;0.00;0.00;0.62;0.00;0.00;0.62;7.53;6.20;;;18.80;26.30;;;;;;2245331;61;20365;-63
2022/01/11 05:40:25;0.00;0.00;0.62;0.00;0.00;0.62;8.70;6.00;;;18.80;26.30;;;;;;2245197;61;20401;-63
2022/01/11 05:43:15;0.00;0.00;0.62;0.00;0.00;0.62;8.20;6.47;;;18.80;26.30;;;;;;2244884;61;20369;-63
2022/01/11 05:46:00;0.00;0.00;0.62;0.00;0.00;0.62;8.10;6.20;;;18.80;26.30;;;;;;2245827;61;20434;-62
2022/01/11 05:48:45;0.00;0.00;0.62;0.00;0.00;0.62;5.90;5.10;;;18.80;26.30;;;;;;2244464;61;20369;-64
2022/01/11 05:51:31;0.00;0.00;0.62;0.00;0.00;0.62;5.73;5.23;;;18.80;26.40;;;;;;2245159;61;20389;-63
2022/01/11 05:54:15;0.00;0.00;0.62;0.00;0.00;0.62;6.10;5.13;;;18.80;26.40;;;;;;2245636;61;20619;-62
2022/01/11 05:57:01;0.00;0.00;0.62;0.00;0.00;0.62;6.20;5.53;;;18.80;26.40;;;;;;2242555;61;20353;-63
2022/01/11 05:59:47;0.00;0.00;0.62;0.00;0.00;0.62;7.43;5.37;;;18.80;26.30;;;;;;2246044;61;20829;-63
2022/01/11 06:02:31;0.00;0.00;0.62;0.00;0.00;0.62;7.17;5.20;;;18.80;26.40;;;;;;2245339;61;20426;-63
2022/01/11 06:05:17;0.00;0.00;0.62;0.00;0.00;0.62;8.27;5.93;;;18.80;26.30;;;;;;2245424;61;20393;-64
2022/01/11 06:08:03;0.00;0.00;0.62;0.00;0.00;0.62;7.17;5.07;;;18.70;26.30;;;;;;2246115;61;20358;-60
2022/01/11 06:10:48;0.00;0.00;0.62;0.00;0.00;0.62;7.40;5.30;;;18.70;26.30;;;;;;2245044;61;20400;-65
2022/01/11 06:13:35;0.00;0.00;0.62;0.00;0.00;0.62;6.80;4.30;;;18.80;26.40;;;;;;2245617;61;20386;-62
2022/01/11 06:16:22;0.00;0.00;0.62;0.00;0.00;0.62;6.23;4.57;;;18.80;26.40;;;;;;2245869;61;20756;-61
2022/01/11 06:19:07;0.00;0.00;0.62;0.00;0.00;0.62;6.90;4.90;;;18.80;27.00;;;;;;2242462;61;20636;-63
2022/01/11 06:22:01;0.00;0.00;0.62;0.00;0.00;0.62;5.13;4.27;;;18.70;26.40;;;;;;2246185;61;20590;-63
2022/01/11 06:24:47;0.00;0.00;0.62;0.00;0.00;0.62;6.73;4.50;;;18.80;26.50;;;;;;2245333;61;20457;-63
2022/01/11 06:27:33;0.00;0.00;0.62;0.00;0.00;0.62;5.20;4.40;;;18.70;26.50;;;;;;2245509;61;20365;-61
2022/01/11 06:30:20;0.00;0.00;0.62;0.00;0.00;0.62;4.07;3.53;;;18.70;26.50;;;;;;2246004;61;20401;-63
2022/01/11 06:33:05;0.00;0.00;0.62;0.00;0.00;0.62;5.30;4.53;;;18.80;26.60;;;;;;2244962;61;20784;-62
2022/01/11 06:35:49;0.00;0.00;0.62;0.00;0.00;0.62;4.20;3.40;;;18.70;26.50;;;;;;2245818;61;20356;-62
2022/01/11 06:38:34;0.00;0.00;0.62;0.00;0.00;0.62;5.23;3.47;;;18.70;26.50;;;;;;2245579;61;20732;-63
2022/01/11 06:41:19;0.00;0.00;0.62;0.00;0.00;0.62;5.20;3.30;;;18.80;26.60;;;;;;2245423;61;20372;-63
2022/01/11 06:44:06;0.00;0.00;0.62;0.00;0.00;0.62;4.40;3.13;;;18.80;26.60;;;;;;2245779;61;20462;-61
2022/01/11 06:46:51;0.00;0.00;0.62;0.00;0.00;0.62;4.93;3.00;;;18.80;26.60;;;;;;2245275;61;20433;-63
2022/01/11 06:49:38;0.00;0.00;0.62;0.00;0.00;0.62;3.57;3.10;;;18.80;26.60;;;;;;2245323;61;20680;-63
2022/01/11 06:52:23;0.00;0.00;0.62;0.00;0.00;0.62;4.07;3.20;;;18.80;26.70;;;;;;2245806;61;20397;-64
2022/01/11 06:55:11;0.00;0.00;0.62;0.00;0.00;0.62;3.40;2.90;;;18.80;26.70;;;;;;2244763;61;20437;-63
2022/01/11 06:57:56;0.00;0.00;0.62;0.00;0.00;0.62;3.37;3.00;;;18.80;26.70;;;;;;2245599;61;20592;-61
2022/01/11 07:00:42;0.00;0.00;0.62;0.00;0.00;0.62;3.20;2.20;;;18.80;27.20;;;;;;2245649;61;20397;-64
2022/01/11 07:03:31;0.00;0.00;0.62;0.00;0.00;0.62;3.97;3.20;;;18.80;26.70;;;;;;2244719;61;20357;-62
2022/01/11 07:06:35;0.00;0.00;0.62;0.00;0.00;0.62;3.60;2.50;;;18.80;26.70;;;;;;2246137;61;20369;-61
2022/01/11 07:09:21;0.00;0.00;0.62;0.00;0.00;0.62;3.10;2.40;;;18.80;26.70;;;;;;2245190;61;20361;-64
2022/01/11 07:12:07;0.00;0.00;0.62;0.00;0.00;0.62;3.20;2.90;;;18.80;26.70;;;;;;2245356;61;20437;-63
2022/01/11 07:14:54;0.00;0.00;0.62;0.00;0.00;0.62;4.43;2.63;;;18.80;26.70;;;;;;2246246;61;20425;-64
2022/01/11 07:17:39;0.00;0.00;0.62;0.00;0.00;0.62;2.83;2.40;;;18.80;26.70;;;;;;2245110;61;20487;-63
2022/01/11 07:20:27;0.00;0.00;0.62;0.00;0.00;0.62;3.50;2.47;;;18.90;26.80;;;;;;2245850;61;20406;-64
2022/01/11 07:23:12;0.00;0.00;0.62;0.00;0.00;0.62;2.83;2.43;;;18.80;26.70;;;;;;2245348;61;20725;-62
2022/01/11 07:25:58;0.00;0.00;0.62;0.00;0.00;0.62;2.87;2.20;;;18.80;26.70;;;;;;2245131;61;20366;-63
2022/01/11 07:28:46;0.00;0.00;0.62;0.00;0.00;0.62;3.97;2.90;;;18.90;26.80;;;;;;2245954;61;20425;-63
2022/01/11 07:31:34;0.00;0.00;0.62;0.00;0.00;0.62;5.17;3.20;;;18.90;26.80;;;;;;2245195;61;20461;-62
2022/01/11 07:34:18;0.00;0.00;0.62;0.00;0.00;0.62;2.80;2.20;;;18.90;26.80;;;;;;2245728;61;20764;-62
2022/01/11 07:37:04;0.00;0.00;0.62;0.00;0.00;0.62;2.90;2.20;;;18.90;26.80;;;;;;2246238;61;20346;-61
2022/01/11 07:39:52;0.00;0.00;0.62;0.00;0.00;0.62;2.93;2.20;;;18.90;26.80;;;;;;2244923;61;20372;-61
2022/01/11 07:42:37;0.00;0.00;0.62;0.00;0.00;0.62;2.70;2.23;;;18.90;26.80;;;;;;2245673;61;20354;-63
2022/01/11 07:45:50;0.00;0.00;0.62;0.00;0.00;0.62;2.87;2.10;;;18.90;26.80;;;;;;2245632;61;20377;-64
2022/01/11 07:48:37;0.00;0.00;0.62;0.00;0.00;0.62;3.83;2.37;;;18.90;26.80;;;;;;2245113;61;20358;-63
2022/01/11 07:51:24;0.00;0.00;0.62;0.00;0.00;0.62;3.37;2.40;;;18.90;26.80;;;;;;2245712;61;20389;-61
2022/01/11 07:54:11;0.00;0.00;0.62;0.00;0.00;0.62;2.67;2.17;;;18.90;26.80;;;;;;2244516;61;20385;-64
2022/01/11 07:56:57;0.00;0.00;0.62;0.00;0.00;0.62;2.67;2.13;;;18.90;26.80;;;;;;2245450;61;20440;-62
2022/01/11 07:59:41;0.00;0.00;0.62;0.00;0.00;0.62;2.77;2.23;;;19.00;26.80;;;;;;2245287;61;20429;-63
2022/01/11 08:02:27;0.00;0.00;0.62;0.00;0.00;0.62;2.60;2.17;;;19.00;26.90;;;;;;2244655;61;20402;-62
2022/01/11 08:05:12;0.00;0.00;0.62;0.00;0.00;0.62;3.30;2.27;;;19.00;26.80;;;;;;2245688;61;20381;-63
2022/01/11 08:07:59;0.00;0.00;0.62;0.00;0.00;0.62;3.30;1.77;;;19.00;26.80;;;;;;2244921;61;20700;-64
2022/01/11 08:10:48;0.00;0.00;0.62;0.00;0.00;0.62;2.53;2.17;;;19.00;26.80;;;;;;2245100;61;20377;-67
2022/01/11 08:13:34;0.00;0.00;0.62;0.00;0.00;0.62;3.10;2.53;;;19.00;26.90;;;;;;2245617;61;20369;-62
2022/01/11 08:16:19;0.00;0.00;0.62;0.00;0.00;0.62;2.50;1.80;;;19.00;26.80;;;;;;2244565;61;20404;-63
2022/01/11 08:19:06;0.00;0.00;0.62;0.00;0.00;0.62;2.10;1.90;;;19.00;26.80;;;;;;2245470;61;20418;-63
2022/01/11 08:21:51;0.00;0.00;0.62;0.00;0.00;0.62;2.40;1.80;;;19.00;26.80;;;;;;2245807;61;20357;-63
2022/01/11 08:24:38;0.00;0.00;0.62;0.00;0.00;0.62;2.40;1.80;;;19.00;26.80;;;;;;2244638;61;20638;-63
2022/01/11 08:27:25;0.00;0.00;0.62;0.00;0.00;0.62;2.30;1.90;;;19.00;26.80;;;;;;2245665;61;20357;-62
2022/01/11 08:30:12;0.00;0.00;0.62;0.00;0.00;0.62;2.03;1.83;;;19.00;26.80;;;;;;2244990;61;20381;-64
2022/01/11 08:33:00;0.00;0.00;0.62;0.00;0.00;0.62;2.77;2.07;;;19.00;26.80;;;;;;2244732;61;20417;-60
2022/01/11 08:35:45;0.00;0.00;0.62;0.00;0.00;0.62;2.20;1.63;;;19.00;26.80;;;;;;2245542;61;20434;-63
2022/01/11 08:38:32;0.00;0.00;0.62;0.00;0.00;0.62;2.17;1.97;;;19.10;26.90;;;;;;2244599;61;20592;-61
2022/01/11 08:41:22;0.00;0.00;0.62;0.00;0.00;0.62;2.30;1.70;;;19.10;26.90;;;;;;2245192;61;20377;-63
2022/01/11 08:44:12;0.00;0.00;0.62;0.00;0.00;0.62;3.23;2.00;;;19.10;26.90;;;;;;2245556;61;20385;-64
2022/01/11 08:46:57;0.00;0.00;0.62;0.00;0.00;0.62;2.67;1.90;;;19.10;26.90;;;;;;2244592;61;20366;-61
2022/01/11 08:49:49;0.00;0.00;0.62;0.00;0.00;0.62;2.73;2.00;;;19.10;26.90;;;;;;2245542;61;20357;-64
2022/01/11 08:52:35;0.00;0.00;0.62;0.00;0.00;0.62;2.77;2.10;;;19.10;26.90;;;;;;2244814;61;20377;-63
2022/01/11 08:55:21;0.00;0.00;0.62;0.00;0.00;0.62;2.30;2.00;;;19.10;26.90;;;;;;2244873;61;20658;-63
2022/01/11 08:58:07;0.00;0.00;0.62;0.00;0.00;0.62;1.83;1.50;;;19.10;26.90;;;;;;2245495;61;20640;-64
2022/01/11 09:00:54;0.00;0.00;0.62;0.00;0.00;0.62;2.10;1.70;;;19.10;26.90;;;;;;2244939;61;20741;-63
2022/01/11 09:03:40;0.00;0.00;0.62;0.00;0.00;0.62;2.07;1.70;;;19.10;26.90;;;;;;2245214;61;20576;-64
2022/01/11 09:06:24;0.00;0.00;0.62;0.00;0.00;0.62;3.13;1.93;;;19.10;26.90;;;;;;2245144;61;20413;-64
2022/01/11 09:09:12;0.00;0.00;0.62;0.00;0.00;0.62;2.30;1.70;;;19.10;26.90;;;;;;2244501;61;20357;-62
2022/01/11 09:11:57;0.00;0.00;0.62;0.00;0.00;0.62;2.23;1.97;;;19.20;27.00;;;;;;2245599;61;20405;-62
2022/01/11 09:14:42;0.00;0.00;0.62;0.00;0.00;0.62;2.10;1.53;;;19.20;27.00;;;;;;2244613;61;20465;-62
2022/01/11 09:17:29;0.00;0.00;0.62;0.00;0.00;0.62;2.47;1.70;;;19.20;27.00;;;;;;2244882;61;20362;-61
2022/01/11 09:20:16;0.00;0.00;0.62;0.00;0.00;0.62;1.63;1.40;;;19.20;26.90;;;;;;2245510;61;20462;-64
2022/01/11 09:23:01;0.00;0.00;0.62;0.00;0.00;0.62;1.97;1.77;;;19.20;27.00;;;;;;2244183;61;20358;-63
2022/01/11 09:25:49;0.00;0.00;0.62;0.00;0.00;0.62;2.63;1.70;;;19.20;27.00;;;;;;2245228;61;20373;-63
2022/01/11 09:28:35;0.00;0.00;0.62;0.00;0.00;0.62;2.27;1.50;;;19.20;27.00;;;;;;2244981;61;20353;-62
2022/01/11 09:31:20;0.00;0.00;0.62;0.00;0.00;0.62;1.90;1.50;;;19.20;27.00;;;;;;2244827;61;20474;-61
2022/01/11 09:34:06;0.00;0.00;0.62;0.00;0.00;0.62;2.07;1.80;;;19.20;27.00;;;;;;2245349;61;20421;-62
2022/01/11 09:36:51;0.00;0.00;0.62;0.00;0.00;0.62;1.70;1.30;;;19.20;27.00;;;;;;2244709;61;20375;-62
2022/01/11 09:39:38;0.00;0.00;0.62;0.00;0.00;0.62;2.10;1.60;;;19.20;27.00;;;;;;2245129;61;20380;-61
2022/01/11 09:42:23;0.00;0.00;0.62;0.00;0.00;0.62;2.03;1.83;;;19.20;27.00;;;;;;2242634;61;20568;-61
2022/01/11 09:45:11;0.00;0.00;0.62;0.00;0.00;0.62;1.80;1.30;;;19.20;27.00;;;;;;2244375;61;20390;-64
2022/01/11 09:48:00;0.00;0.00;0.62;0.00;0.00;0.62;2.20;1.53;;;19.20;27.00;;;;;;2245476;61;20362;-64
2022/01/11 09:50:47;0.00;0.00;0.62;0.00;0.00;0.62;2.00;1.40;;;19.20;27.00;;;;;;2245170;61;20389;-62
2022/01/11 09:53:32;0.00;0.00;0.62;0.00;0.00;0.62;3.07;2.30;;;19.20;27.00;;;;;;2244254;61;20417;-62
2022/01/11 09:56:20;0.00;0.00;0.62;0.00;0.00;0.62;2.17;1.43;;;19.30;27.00;;;;;;2245260;61;20362;-64
2022/01/11 09:59:07;0.00;0.00;0.62;0.00;0.00;0.62;1.90;1.60;;;19.30;27.00;;;;;;2244700;61;20409;-63
2022/01/11 10:02:12;0.00;0.00;0.62;0.00;0.00;0.62;2.30;1.80;;;19.30;27.00;;;;;;2245161;61;20421;-63
2022/01/11 10:05:10;0.00;0.00;0.62;0.00;0.00;0.62;1.90;1.40;;;19.30;27.10;;;;;;2245306;61;20432;-61
2022/01/11 10:08:24;0.00;0.00;0.62;0.00;0.00;0.62;2.10;1.60;;;19.30;27.10;;;;;;2245156;61;20613;-64
2022/01/11 10:11:09;0.00;0.00;0.62;0.00;0.00;0.62;2.70;1.73;;;19.30;27.10;;;;;;2245329;61;20366;-64
2022/01/11 10:13:54;0.00;0.00;0.62;0.00;0.00;0.62;2.10;1.60;;;19.30;27.10;;;;;;2244576;61;20386;-64
2022/01/11 10:16:39;0.00;0.00;0.62;0.00;0.00;0.62;2.33;1.67;;;19.30;27.00;;;;;;2245053;61;20357;-61
2022/01/11 10:19:26;0.00;0.00;0.62;0.00;0.00;0.62;1.63;1.50;;;19.30;27.00;;;;;;2245316;61;20361;-62
2022/01/11 10:22:15;0.00;0.00;0.62;0.00;0.00;0.62;2.17;1.50;;;19.30;27.10;;;;;;2244263;61;20425;-64
2022/01/11 10:25:03;0.00;0.00;0.62;0.00;0.00;0.62;2.00;1.47;;;19.30;27.10;;;;;;2244989;61;20381;-62
2022/01/11 10:27:56;0.00;0.00;0.62;0.00;0.00;0.62;1.87;1.57;;;19.30;27.00;;;;;;2245019;61;20413;-64
2022/01/11 10:30:42;0.00;0.00;0.62;0.00;0.00;0.62;2.20;1.80;;;19.40;27.10;;;;;;2244328;61;20358;-62
2022/01/11 10:33:28;0.00;0.00;0.62;0.00;0.00;0.62;2.20;1.67;;;19.40;27.10;;;;;;2245137;61;20464;-63
2022/01/11 10:36:13;0.00;0.00;0.62;0.00;0.00;0.62;1.70;1.37;;;19.40;27.10;;;;;;2244637;61;20365;-64
2022/01/11 10:39:27;0.00;0.00;0.62;0.00;0.00;0.62;1.70;1.37;;;19.40;27.10;;;;;;2244884;61;20409;-63
2022/01/11 10:42:32;0.00;0.00;0.62;0.00;0.00;0.62;2.10;1.53;;;19.40;27.10;;;;;;2245883;61;20354;-62
2022/01/11 10:45:21;0.00;0.00;0.62;0.00;0.00;0.62;2.30;1.70;;;19.40;27.10;;;;;;2244948;61;20381;-61
2022/01/11 10:48:11;0.00;0.00;0.62;0.00;0.00;0.62;1.70;1.40;;;19.40;27.10;;;;;;2243337;61;20356;-63
2022/01/11 10:51:01;0.00;0.00;0.62;0.00;0.00;0.62;2.97;2.00;;;19.40;27.10;;;;;;2245433;61;20369;-64
2022/01/11 10:53:49;0.00;0.00;0.62;0.00;0.00;0.62;1.87;1.57;;;19.50;27.20;;;;;;2242499;61;20449;-64
2022/01/11 10:56:39;0.00;0.00;0.62;0.00;0.00;0.62;1.57;1.10;;;19.50;27.20;;;;;;2243402;61;20591;-63
2022/01/11 10:59:25;0.00;0.00;0.62;0.00;0.00;0.62;1.80;1.50;;;19.50;27.20;;;;;;2244891;61;20362;-63